sensor_id;sensor_type;location;lat;lon;timestamp;pressure;altitude;pressure_sealevel;temperature;humidity
34197;BME280;36594;45.192;5.722;2023-03-22T00:00:28;99159.60;;;23.91;33.62
34197;BME280;36594;45.192;5.722;2023-03-22T00:03:17;99168.95;;;23.93;33.59
34197;BME280;36594;45.192;5.722;2023-03-22T00:06:06;99165.93;;;23.92;33.66
34197;BME280;36594;45.192;5.722;2023-03-22T00:08:55;99162.30;;;23.89;33.68
34197;BME280;36594;45.192;5.722;2023-03-22T00:11:43;99160.94;;;23.89;33.73
34197;BME280;36594;45.192;5.722;2023-03-22T00:14:32;99165.93;;;23.92;33.76
34197;BME280;36594;45.192;5.722;2023-03-22T00:17:21;99163.42;;;23.90;33.70
34197;BME280;36594;45.192;5.722;2023-03-22T00:20:10;99163.98;;;23.92;33.68
34197;BME280;36594;45.192;5.722;2023-03-22T00:22:59;99160.71;;;23.93;33.66
34197;BME280;36594;45.192;5.722;2023-03-22T00:25:47;99154.39;;;23.92;33.66
34197;BME280;36594;45.192;5.722;2023-03-22T00:28:36;99151.61;;;23.90;33.69
34197;BME280;36594;45.192;5.722;2023-03-22T00:31:24;99156.82;;;23.89;33.71
34197;BME280;36594;45.192;5.722;2023-03-22T00:34:13;99145.09;;;23.93;33.66
34197;BME280;36594;45.192;5.722;2023-03-22T00:37:01;99151.64;;;23.92;33.66
34197;BME280;36594;45.192;5.722;2023-03-22T00:39:50;99149.16;;;23.91;33.71
34197;BME280;36594;45.192;5.722;2023-03-22T00:42:39;99140.14;;;23.93;33.73
34197;BME280;36594;45.192;5.722;2023-03-22T00:45:28;99145.36;;;23.92;33.77
34197;BME280;36594;45.192;5.722;2023-03-22T00:48:17;99151.69;;;23.95;33.79
34197;BME280;36594;45.192;5.722;2023-03-22T00:51:06;99149.78;;;23.95;33.77
34197;BME280;36594;45.192;5.722;2023-03-22T00:53:56;99147.03;;;23.95;33.80
34197;BME280;36594;45.192;5.722;2023-03-22T00:56:44;99144.56;;;23.94;33.84
34197;BME280;36594;45.192;5.722;2023-03-22T00:59:33;99138.27;;;23.96;33.83
34197;BME280;36594;45.192;5.722;2023-03-22T01:02:25;99137.66;;;23.91;33.83
34197;BME280;36594;45.192;5.722;2023-03-22T01:05:15;99129.42;;;23.91;33.89
34197;BME280;36594;45.192;5.722;2023-03-22T01:08:07;99123.91;;;23.89;33.91
34197;BME280;36594;45.192;5.722;2023-03-22T01:10:55;99126.38;;;23.90;33.88
34197;BME280;36594;45.192;5.722;2023-03-22T01:13:43;99127.22;;;23.91;33.90
34197;BME280;36594;45.192;5.722;2023-03-22T01:16:31;99117.08;;;23.91;33.92
34197;BME280;36594;45.192;5.722;2023-03-22T01:19:21;99114.57;;;23.90;33.93
34197;BME280;36594;45.192;5.722;2023-03-22T01:22:10;99113.81;;;23.94;33.88
34197;BME280;36594;45.192;5.722;2023-03-22T01:24:58;99115.45;;;23.93;33.88
34197;BME280;36594;45.192;5.722;2023-03-22T01:27:47;99116.06;;;23.97;33.86
34197;BME280;36594;45.192;5.722;2023-03-22T01:30:37;99118.80;;;23.97;33.83
34197;BME280;36594;45.192;5.722;2023-03-22T01:33:25;99117.70;;;23.96;33.80
34197;BME280;36594;45.192;5.722;2023-03-22T01:36:13;99111.33;;;23.93;33.92
34197;BME280;36594;45.192;5.722;2023-03-22T01:39:02;99112.44;;;23.94;33.87
34197;BME280;36594;45.192;5.722;2023-03-22T01:41:51;99115.75;;;23.94;33.89
34197;BME280;36594;45.192;5.722;2023-03-22T01:44:42;99120.44;;;23.96;33.88
34197;BME280;36594;45.192;5.722;2023-03-22T01:47:34;99119.03;;;23.93;33.96
34197;BME280;36594;45.192;5.722;2023-03-22T01:50:24;99124.25;;;23.95;33.92
34197;BME280;36594;45.192;5.722;2023-03-22T01:53:14;99120.97;;;23.95;33.92
34197;BME280;36594;45.192;5.722;2023-03-22T01:56:06;99124.29;;;23.97;33.89
34197;BME280;36594;45.192;5.722;2023-03-22T01:58:55;99120.44;;;23.96;33.89
34197;BME280;36594;45.192;5.722;2023-03-22T02:01:46;99116.63;;;23.99;33.86
34197;BME280;36594;45.192;5.722;2023-03-22T02:04:37;99114.16;;;23.98;33.85
34197;BME280;36594;45.192;5.722;2023-03-22T02:07:27;99105.92;;;23.98;33.87
34197;BME280;36594;45.192;5.722;2023-03-22T02:10:19;99104.55;;;23.98;33.86
34197;BME280;36594;45.192;5.722;2023-03-22T02:16:23;99112.25;;;23.98;33.86
34197;BME280;36594;45.192;5.722;2023-03-22T02:22:29;99103.72;;;23.97;33.87
34197;BME280;36594;45.192;5.722;2023-03-22T02:25:44;99111.41;;;23.98;33.92
34197;BME280;36594;45.192;5.722;2023-03-22T02:40:31;99114.42;;;23.96;33.95
34197;BME280;36594;45.192;5.722;2023-03-22T02:43:35;99109.47;;;23.96;33.99
34197;BME280;36594;45.192;5.722;2023-03-22T02:46:31;99104.86;;;23.99;33.91
34197;BME280;36594;45.192;5.722;2023-03-22T02:49:28;99110.58;;;23.97;33.97
34197;BME280;36594;45.192;5.722;2023-03-22T02:52:15;99108.13;;;23.98;33.94
34197;BME280;36594;45.192;5.722;2023-03-22T02:55:12;99107.83;;;23.97;33.97
34197;BME280;36594;45.192;5.722;2023-03-22T02:58:05;99109.24;;;24.00;33.97
34197;BME280;36594;45.192;5.722;2023-03-22T03:01:07;99107.06;;;24.02;33.94
34197;BME280;36594;45.192;5.722;2023-03-22T03:03:56;99109.81;;;24.02;33.93
34197;BME280;36594;45.192;5.722;2023-03-22T03:06:47;99103.75;;;24.00;33.92
34197;BME280;36594;45.192;5.722;2023-03-22T03:09:38;99104.86;;;24.01;33.89
34197;BME280;36594;45.192;5.722;2023-03-22T03:12:27;99110.91;;;24.01;33.93
34197;BME280;36594;45.192;5.722;2023-03-22T03:15:19;99112.02;;;24.02;33.91
34197;BME280;36594;45.192;5.722;2023-03-22T03:18:12;99110.39;;;24.04;33.90
34197;BME280;36594;45.192;5.722;2023-03-22T03:27:26;99106.00;;;24.03;33.94
34197;BME280;36594;45.192;5.722;2023-03-22T03:30:19;99105.73;;;24.04;33.94
34197;BME280;36594;45.192;5.722;2023-03-22T03:33:07;99104.09;;;24.03;33.96
34197;BME280;36594;45.192;5.722;2023-03-22T03:35:59;99106.34;;;24.07;33.97
34197;BME280;36594;45.192;5.722;2023-03-22T03:38:49;99103.90;;;24.08;33.91
34197;BME280;36594;45.192;5.722;2023-03-22T03:41:39;99104.73;;;24.08;33.92
34197;BME280;36594;45.192;5.722;2023-03-22T03:44:31;99107.75;;;24.09;33.91
34197;BME280;36594;45.192;5.722;2023-03-22T03:47:20;99108.89;;;24.11;33.89
34197;BME280;36594;45.192;5.722;2023-03-22T03:50:10;99100.92;;;24.12;33.88
34197;BME280;36594;45.192;5.722;2023-03-22T03:52:58;99102.37;;;24.17;33.79
34197;BME280;36594;45.192;5.722;2023-03-22T03:55:47;99112.78;;;24.15;33.82
34197;BME280;36594;45.192;5.722;2023-03-22T03:58:36;99108.36;;;24.14;33.85
34197;BME280;36594;45.192;5.722;2023-03-22T04:01:26;99107.82;;;24.14;33.87
34197;BME280;36594;45.192;5.722;2023-03-22T04:04:22;99108.43;;;24.19;33.81
34197;BME280;36594;45.192;5.722;2023-03-22T04:07:15;99107.89;;;24.19;33.78
34197;BME280;36594;45.192;5.722;2023-03-22T04:10:05;99104.31;;;24.19;33.80
34197;BME280;36594;45.192;5.722;2023-03-22T04:12:53;99102.11;;;24.18;33.81
34197;BME280;36594;45.192;5.722;2023-03-22T04:15:42;99106.22;;;24.18;33.80
34197;BME280;36594;45.192;5.722;2023-03-22T04:18:32;99112.02;;;24.19;33.83
34197;BME280;36594;45.192;5.722;2023-03-22T04:21:22;99114.45;;;24.18;33.82
34197;BME280;36594;45.192;5.722;2023-03-22T04:24:13;99107.40;;;24.22;33.77
34197;BME280;36594;45.192;5.722;2023-03-22T04:27:03;99112.09;;;24.24;33.74
34197;BME280;36594;45.192;5.722;2023-03-22T04:30:12;99108.77;;;24.22;33.81
34197;BME280;36594;45.192;5.722;2023-03-22T04:33:22;99109.27;;;24.19;33.79
34197;BME280;36594;45.192;5.722;2023-03-22T04:36:24;99110.34;;;24.18;33.84
34197;BME280;36594;45.192;5.722;2023-03-22T04:39:22;99116.13;;;24.19;33.87
34197;BME280;36594;45.192;5.722;2023-03-22T04:42:12;99113.39;;;24.19;33.86
34197;BME280;36594;45.192;5.722;2023-03-22T04:45:03;99118.38;;;24.22;33.80
34197;BME280;36594;45.192;5.722;2023-03-22T04:47:52;99109.04;;;24.23;33.79
34197;BME280;36594;45.192;5.722;2023-03-22T04:50:40;99107.44;;;24.25;33.76
34197;BME280;36594;45.192;5.722;2023-03-22T04:53:29;99103.59;;;24.26;33.76
34197;BME280;36594;45.192;5.722;2023-03-22T04:56:20;99102.55;;;24.29;33.75
34197;BME280;36594;45.192;5.722;2023-03-22T04:59:10;99106.37;;;24.28;33.79
34197;BME280;36594;45.192;5.722;2023-03-22T05:01:59;99103.92;;;24.29;33.75
34197;BME280;36594;45.192;5.722;2023-03-22T05:04:48;99108.00;;;24.27;33.75
34197;BME280;36594;45.192;5.722;2023-03-22T05:07:41;99107.47;;;24.30;33.74
34197;BME280;36594;45.192;5.722;2023-03-22T05:10:32;99114.63;;;24.31;33.78
34197;BME280;36594;45.192;5.722;2023-03-22T05:13:21;99109.14;;;24.31;33.74
34197;BME280;36594;45.192;5.722;2023-03-22T05:16:11;99113.56;;;24.32;33.74
34197;BME280;36594;45.192;5.722;2023-03-22T05:19:01;99109.45;;;24.32;33.75
34197;BME280;36594;45.192;5.722;2023-03-22T05:21:49;99094.02;;;24.28;33.71
34197;BME280;36594;45.192;5.722;2023-03-22T05:24:39;99107.30;;;24.36;33.68
34197;BME280;36594;45.192;5.722;2023-03-22T05:27:30;99112.80;;;24.36;33.69
34197;BME280;36594;45.192;5.722;2023-03-22T05:30:21;99114.47;;;24.40;33.68
34197;BME280;36594;45.192;5.722;2023-03-22T05:33:14;99116.37;;;24.39;33.68
34197;BME280;36594;45.192;5.722;2023-03-22T05:36:06;99114.97;;;24.37;33.69
34197;BME280;36594;45.192;5.722;2023-03-22T05:38:56;99119.13;;;24.39;33.67
34197;BME280;36594;45.192;5.722;2023-03-22T05:41:45;99112.27;;;24.39;33.67
34197;BME280;36594;45.192;5.722;2023-03-22T05:44:34;99111.46;;;24.41;33.65
34197;BME280;36594;45.192;5.722;2023-03-22T05:47:26;99110.92;;;24.42;33.65
34197;BME280;36594;45.192;5.722;2023-03-22T05:50:21;99110.92;;;24.42;33.70
34197;BME280;36594;45.192;5.722;2023-03-22T05:53:10;99104.09;;;24.44;33.69
34197;BME280;36594;45.192;5.722;2023-03-22T05:56:16;99103.56;;;24.45;33.67
34197;BME280;36594;45.192;5.722;2023-03-22T05:59:06;99103.23;;;24.41;33.71
34197;BME280;36594;45.192;5.722;2023-03-22T06:01:54;99099.98;;;24.44;33.69
34197;BME280;36594;45.192;5.722;2023-03-22T06:04:43;99105.47;;;24.44;33.66
34197;BME280;36594;45.192;5.722;2023-03-22T06:07:34;99108.52;;;24.45;33.67
34197;BME280;36594;45.192;5.722;2023-03-22T06:10:25;99112.36;;;24.47;33.70
34197;BME280;36594;45.192;5.722;2023-03-22T06:13:14;99119.23;;;24.47;33.66
34197;BME280;36594;45.192;5.722;2023-03-22T06:16:04;99119.27;;;24.49;33.64
34197;BME280;36594;45.192;5.722;2023-03-22T06:18:53;99119.83;;;24.51;33.64
34197;BME280;36594;45.192;5.722;2023-03-22T06:21:41;99121.77;;;24.53;33.68
34197;BME280;36594;45.192;5.722;2023-03-22T06:24:33;99125.89;;;24.53;33.66
34197;BME280;36594;45.192;5.722;2023-03-22T06:27:23;99129.81;;;24.57;33.61
34197;BME280;36594;45.192;5.722;2023-03-22T06:30:12;99130.05;;;24.56;33.59
34197;BME280;36594;45.192;5.722;2023-03-22T06:33:02;99130.62;;;24.58;33.61
34197;BME280;36594;45.192;5.722;2023-03-22T06:35:53;99139.69;;;24.58;33.60
34197;BME280;36594;45.192;5.722;2023-03-22T06:38:43;99133.70;;;24.61;33.60
34197;BME280;36594;45.192;5.722;2023-03-22T06:41:32;99130.65;;;24.60;33.70
34197;BME280;36594;45.192;5.722;2023-03-22T06:44:21;99131.52;;;24.63;33.36
34197;BME280;36594;45.192;5.722;2023-03-22T06:47:14;99127.06;;;24.60;33.06
34197;BME280;36594;45.192;5.722;2023-03-22T06:50:19;99124.92;;;24.62;32.97
34197;BME280;36594;45.192;5.722;2023-03-22T06:53:27;99123.48;;;24.57;32.66
34197;BME280;36594;45.192;5.722;2023-03-22T06:56:16;99126.53;;;24.60;32.71
34197;BME280;36594;45.192;5.722;2023-03-22T06:59:05;99123.25;;;24.61;32.75
34197;BME280;36594;45.192;5.722;2023-03-22T07:01:54;99127.10;;;24.62;32.80
34197;BME280;36594;45.192;5.722;2023-03-22T07:04:44;99122.98;;;24.62;32.90
34197;BME280;36594;45.192;5.722;2023-03-22T07:07:32;99122.95;;;24.60;32.98
34197;BME280;36594;45.192;5.722;2023-03-22T07:10:22;99120.23;;;24.62;33.11
34197;BME280;36594;45.192;5.722;2023-03-22T07:13:10;99120.56;;;24.66;33.13
34197;BME280;36594;45.192;5.722;2023-03-22T07:16:00;99120.06;;;24.71;33.07
34197;BME280;36594;45.192;5.722;2023-03-22T07:18:57;99124.18;;;24.71;32.97
34197;BME280;36594;45.192;5.722;2023-03-22T07:21:45;99121.13;;;24.68;33.00
34197;BME280;36594;45.192;5.722;2023-03-22T07:24:33;99119.46;;;24.67;33.01
34197;BME280;36594;45.192;5.722;2023-03-22T07:27:22;99123.34;;;24.68;33.10
34197;BME280;36594;45.192;5.722;2023-03-22T07:30:11;99124.41;;;24.67;33.30
34197;BME280;36594;45.192;5.722;2023-03-22T07:33:04;99128.27;;;24.66;33.34
34197;BME280;36594;45.192;5.722;2023-03-22T07:35:52;99123.61;;;24.69;33.60
34197;BME280;36594;45.192;5.722;2023-03-22T07:38:41;99120.89;;;24.72;33.54
34197;BME280;36594;45.192;5.722;2023-03-22T07:41:32;99125.16;;;24.60;34.01
34197;BME280;36594;45.192;5.722;2023-03-22T07:44:38;99127.50;;;24.49;34.31
34197;BME280;36594;45.192;5.722;2023-03-22T07:47:28;99127.20;;;24.48;34.63
34197;BME280;36594;45.192;5.722;2023-03-22T07:50:21;99128.20;;;24.61;34.39
34197;BME280;36594;45.192;5.722;2023-03-22T07:53:11;99131.82;;;24.67;34.30
34197;BME280;36594;45.192;5.722;2023-03-22T07:56:00;99129.70;;;24.74;34.18
34197;BME280;36594;45.192;5.722;2023-03-22T07:58:48;99128.70;;;24.78;34.12
34197;BME280;36594;45.192;5.722;2023-03-22T08:01:38;99136.16;;;24.82;34.06
34197;BME280;36594;45.192;5.722;2023-03-22T08:04:28;99136.46;;;24.83;34.06
34197;BME280;36594;45.192;5.722;2023-03-22T08:07:33;99137.00;;;24.83;34.00
34197;BME280;36594;45.192;5.722;2023-03-22T08:10:21;99132.31;;;24.81;34.10
34197;BME280;36594;45.192;5.722;2023-03-22T08:13:11;99136.19;;;24.85;34.03
34197;BME280;36594;45.192;5.722;2023-03-22T08:16:00;99135.92;;;24.86;34.02
34197;BME280;36594;45.192;5.722;2023-03-22T08:18:50;99137.06;;;24.88;33.97
34197;BME280;36594;45.192;5.722;2023-03-22T08:21:38;99140.88;;;24.87;33.99
34197;BME280;36594;45.192;5.722;2023-03-22T08:24:28;99140.64;;;24.91;33.98
34197;BME280;36594;45.192;5.722;2023-03-22T08:27:19;99147.84;;;24.94;33.93
34197;BME280;36594;45.192;5.722;2023-03-22T08:30:10;99147.27;;;24.92;33.97
34197;BME280;36594;45.192;5.722;2023-03-22T08:32:58;99142.88;;;24.94;33.92
34197;BME280;36594;45.192;5.722;2023-03-22T08:35:47;99137.09;;;24.93;33.88
34197;BME280;36594;45.192;5.722;2023-03-22T08:38:35;99135.17;;;24.93;33.91
34197;BME280;36594;45.192;5.722;2023-03-22T08:41:25;99128.91;;;24.98;33.90
34197;BME280;36594;45.192;5.722;2023-03-22T08:44:13;99120.93;;;24.96;33.92
34197;BME280;36594;45.192;5.722;2023-03-22T08:47:02;99117.34;;;24.96;33.96
34197;BME280;36594;45.192;5.722;2023-03-22T08:49:51;99117.64;;;24.97;33.89
34197;BME280;36594;45.192;5.722;2023-03-22T08:52:41;99112.15;;;24.97;33.92
34197;BME280;36594;45.192;5.722;2023-03-22T08:55:43;99104.71;;;24.97;33.94
34197;BME280;36594;45.192;5.722;2023-03-22T08:58:33;99102.77;;;24.95;33.89
34197;BME280;36594;45.192;5.722;2023-03-22T09:01:32;99099.78;;;24.97;33.88
34197;BME280;36594;45.192;5.722;2023-03-22T09:04:23;99102.80;;;24.98;33.91
34197;BME280;36594;45.192;5.722;2023-03-22T09:07:13;99096.52;;;25.02;33.84
34197;BME280;36594;45.192;5.722;2023-03-22T09:10:03;99096.52;;;25.02;33.85
34197;BME280;36594;45.192;5.722;2023-03-22T09:12:52;99094.91;;;25.04;33.81
34197;BME280;36594;45.192;5.722;2023-03-22T09:15:40;99097.38;;;25.05;33.82
34197;BME280;36594;45.192;5.722;2023-03-22T09:18:30;99095.45;;;25.03;33.88
34197;BME280;36594;45.192;5.722;2023-03-22T09:21:20;99091.30;;;25.01;33.86
34197;BME280;36594;45.192;5.722;2023-03-22T09:24:13;99095.17;;;25.05;33.89
34197;BME280;36594;45.192;5.722;2023-03-22T09:27:05;99090.55;;;25.08;33.83
34197;BME280;36594;45.192;5.722;2023-03-22T09:29:54;99086.69;;;25.06;33.84
34197;BME280;36594;45.192;5.722;2023-03-22T09:32:43;99087.25;;;25.08;33.75
34197;BME280;36594;45.192;5.722;2023-03-22T09:35:33;99084.51;;;25.08;33.80
34197;BME280;36594;45.192;5.722;2023-03-22T09:38:24;99079.55;;;25.08;33.82
34197;BME280;36594;45.192;5.722;2023-03-22T09:41:16;99082.02;;;25.09;33.77
34197;BME280;36594;45.192;5.722;2023-03-22T09:44:07;99075.69;;;25.09;33.82
34197;BME280;36594;45.192;5.722;2023-03-22T09:46:58;99071.57;;;25.09;33.80
34197;BME280;36594;45.192;5.722;2023-03-22T09:49:49;99068.05;;;25.11;33.79
34197;BME280;36594;45.192;5.722;2023-03-22T09:52:40;99066.34;;;25.07;33.84
34197;BME280;36594;45.192;5.722;2023-03-22T10:04:42;99054.30;;;25.11;33.79
34197;BME280;36594;45.192;5.722;2023-03-22T10:10:41;99047.41;;;25.08;33.85
34197;BME280;36594;45.192;5.722;2023-03-22T10:14:18;99050.69;;;25.08;33.85
34197;BME280;36594;45.192;5.722;2023-03-22T10:16:32;99047.38;;;25.06;33.83
34197;BME280;36594;45.192;5.722;2023-03-22T10:19:30;99035.03;;;25.08;33.86
34197;BME280;36594;45.192;5.722;2023-03-22T10:22:15;99033.69;;;25.11;33.79
34197;BME280;36594;45.192;5.722;2023-03-22T10:25:06;99033.95;;;25.12;33.79
34197;BME280;36594;45.192;5.722;2023-03-22T10:27:55;99029.27;;;25.10;33.80
34197;BME280;36594;45.192;5.722;2023-03-22T10:30:46;99029.27;;;25.10;33.80
34197;BME280;36594;45.192;5.722;2023-03-22T10:33:39;99026.00;;;25.13;33.77
34197;BME280;36594;45.192;5.722;2023-03-22T10:36:32;99018.02;;;25.14;33.66
34197;BME280;36594;45.192;5.722;2023-03-22T10:39:35;99017.44;;;25.09;33.79
34197;BME280;36594;45.192;5.722;2023-03-22T10:42:27;99011.15;;;25.14;33.72
34197;BME280;36594;45.192;5.722;2023-03-22T10:45:16;99009.78;;;25.14;33.73
34197;BME280;36594;45.192;5.722;2023-03-22T10:48:12;99008.16;;;25.15;33.71
34197;BME280;36594;45.192;5.722;2023-03-22T10:50:58;99006.22;;;25.16;33.74
34197;BME280;36594;45.192;5.722;2023-03-22T10:53:49;99002.09;;;25.16;33.70
34197;BME280;36594;45.192;5.722;2023-03-22T10:56:39;98991.91;;;25.14;33.71
34197;BME280;36594;45.192;5.722;2023-03-22T10:59:46;98986.17;;;25.15;33.66
34197;BME280;36594;45.192;5.722;2023-03-22T11:02:44;98982.06;;;25.18;33.63
34197;BME280;36594;45.192;5.722;2023-03-22T11:05:33;98985.08;;;25.19;33.61
34197;BME280;36594;45.192;5.722;2023-03-22T11:08:21;98965.23;;;25.12;33.65
34197;BME280;36594;45.192;5.722;2023-03-22T11:11:21;98979.59;;;25.19;33.66
34197;BME280;36594;45.192;5.722;2023-03-22T11:17:07;98959.80;;;25.19;33.63
34197;BME280;36594;45.192;5.722;2023-03-22T11:20:02;98953.47;;;25.19;33.64
34197;BME280;36594;45.192;5.722;2023-03-22T11:22:59;98948.25;;;25.17;33.64
34197;BME280;36594;45.192;5.722;2023-03-22T11:25:50;98947.39;;;25.14;33.70
34197;BME280;36594;45.192;5.722;2023-03-22T11:28:48;98949.63;;;25.17;33.63
34197;BME280;36594;45.192;5.722;2023-03-22T11:31:57;98943.02;;;25.18;33.70
34197;BME280;36594;45.192;5.722;2023-03-22T11:34:46;98939.19;;;25.19;33.66
34197;BME280;36594;45.192;5.722;2023-03-22T11:37:40;98932.59;;;25.18;33.67
34197;BME280;36594;45.192;5.722;2023-03-22T11:40:34;98927.36;;;25.19;33.63
34197;BME280;36594;45.192;5.722;2023-03-22T11:43:36;98927.66;;;25.20;33.63
34197;BME280;36594;45.192;5.722;2023-03-22T11:46:21;98920.77;;;25.17;33.63
34197;BME280;36594;45.192;5.722;2023-03-22T11:49:12;98915.30;;;25.22;33.58
34197;BME280;36594;45.192;5.722;2023-03-22T11:52:13;98914.45;;;25.19;33.58
34197;BME280;36594;45.192;5.722;2023-03-22T11:55:00;98914.75;;;25.20;33.58
34197;BME280;36594;45.192;5.722;2023-03-22T11:57:50;98903.14;;;25.16;33.63
34197;BME280;36594;45.192;5.722;2023-03-22T12:00:40;98905.13;;;25.20;33.60
34197;BME280;36594;45.192;5.722;2023-03-22T12:03:31;98897.98;;;25.24;33.55
34197;BME280;36594;45.192;5.722;2023-03-22T12:06:30;98898.53;;;25.24;33.47
34197;BME280;36594;45.192;5.722;2023-03-22T12:09:38;98896.86;;;25.23;33.57
34197;BME280;36594;45.192;5.722;2023-03-22T12:12:30;98890.83;;;25.23;33.58
34197;BME280;36594;45.192;5.722;2023-03-22T12:15:45;98879.28;;;25.24;33.55
34197;BME280;36594;45.192;5.722;2023-03-22T12:21:31;98875.98;;;25.22;33.57
34197;BME280;36594;45.192;5.722;2023-03-22T12:24:29;98873.80;;;25.24;33.57
34197;BME280;36594;45.192;5.722;2023-03-22T12:27:40;98862.23;;;25.22;33.58
34197;BME280;36594;45.192;5.722;2023-03-22T12:30:26;98853.45;;;25.22;33.55
34197;BME280;36594;45.192;5.722;2023-03-22T12:33:26;98846.30;;;25.24;33.59
34197;BME280;36594;45.192;5.722;2023-03-22T12:36:18;98840.52;;;25.25;33.55
34197;BME280;36594;45.192;5.722;2023-03-22T12:39:08;98836.98;;;25.25;33.57
34197;BME280;36594;45.192;5.722;2023-03-22T12:42:00;98830.34;;;25.23;33.57
34197;BME280;36594;45.192;5.722;2023-03-22T12:44:49;98824.60;;;25.25;33.55
34197;BME280;36594;45.192;5.722;2023-03-22T12:47:40;98810.86;;;25.30;33.46
34197;BME280;36594;45.192;5.722;2023-03-22T12:50:59;98804.81;;;25.30;33.40
34197;BME280;36594;45.192;5.722;2023-03-22T12:53:51;98800.69;;;25.30;33.43
34197;BME280;36594;45.192;5.722;2023-03-22T12:56:44;98800.42;;;25.27;33.45
34197;BME280;36594;45.192;5.722;2023-03-22T12:59:33;98798.20;;;25.26;33.45
34197;BME280;36594;45.192;5.722;2023-03-22T13:02:26;98791.33;;;25.24;33.49
34197;BME280;36594;45.192;5.722;2023-03-22T13:05:17;98785.30;;;25.27;33.47
34197;BME280;36594;45.192;5.722;2023-03-22T13:08:05;98786.39;;;25.28;33.40
34197;BME280;36594;45.192;5.722;2023-03-22T13:11:04;98786.95;;;25.30;33.39
34197;BME280;36594;45.192;5.722;2023-03-22T13:13:53;98781.73;;;25.29;33.42
34197;BME280;36594;45.192;5.722;2023-03-22T13:16:50;98777.60;;;25.29;33.41
34197;BME280;36594;45.192;5.722;2023-03-22T13:19:38;98777.31;;;25.28;33.40
34197;BME280;36594;45.192;5.722;2023-03-22T13:23:24;98766.87;;;25.30;33.37
34197;BME280;36594;45.192;5.722;2023-03-22T13:31:16;98759.20;;;25.32;33.33
34197;BME280;36594;45.192;5.722;2023-03-22T13:34:00;98750.94;;;25.27;33.36
34197;BME280;36594;45.192;5.722;2023-03-22T13:36:53;98751.47;;;25.24;33.36
34197;BME280;36594;45.192;5.722;2023-03-22T13:39:42;98738.27;;;25.26;33.34
34197;BME280;36594;45.192;5.722;2023-03-22T13:42:37;98738.00;;;25.30;33.31
34197;BME280;36594;45.192;5.722;2023-03-22T13:45:30;98731.43;;;25.33;33.30
34197;BME280;36594;45.192;5.722;2023-03-22T13:48:42;98731.43;;;25.33;33.18
34197;BME280;36594;45.192;5.722;2023-03-22T13:54:17;98731.13;;;25.30;33.19
34197;BME280;36594;45.192;5.722;2023-03-22T13:57:15;98726.75;;;25.29;33.22
34197;BME280;36594;45.192;5.722;2023-03-22T14:00:16;98720.42;;;25.31;33.11
34197;BME280;36594;45.192;5.722;2023-03-22T14:03:12;98720.14;;;25.25;33.13
34197;BME280;36594;45.192;5.722;2023-03-22T14:06:04;98711.33;;;25.25;32.96
34197;BME280;36594;45.192;5.722;2023-03-22T14:08:56;98711.64;;;25.31;32.91
34197;BME280;36594;45.192;5.722;2023-03-22T14:11:47;98714.92;;;25.31;32.83
34197;BME280;36594;45.192;5.722;2023-03-22T14:14:39;98710.25;;;25.29;32.73
34197;BME280;36594;45.192;5.722;2023-03-22T14:20:37;98700.91;;;25.27;32.64
34197;BME280;36594;45.192;5.722;2023-03-22T14:23:26;98707.20;;;25.23;32.58
34197;BME280;36594;45.192;5.722;2023-03-22T14:26:17;98696.49;;;25.24;32.50
34197;BME280;36594;45.192;5.722;2023-03-22T14:29:15;98697.58;;;25.25;32.40
34197;BME280;36594;45.192;5.722;2023-03-22T14:32:04;98694.04;;;25.27;32.35
34197;BME280;36594;45.192;5.722;2023-03-22T14:35:00;98694.04;;;25.27;32.23
34197;BME280;36594;45.192;5.722;2023-03-22T14:37:48;98686.59;;;25.28;32.17
34197;BME280;36594;45.192;5.722;2023-03-22T14:40:37;98683.60;;;25.32;32.10
34197;BME280;36594;45.192;5.722;2023-03-22T14:43:27;98678.90;;;25.30;32.03
34197;BME280;36594;45.192;5.722;2023-03-22T14:46:21;98687.98;;;25.30;31.95
34197;BME280;36594;45.192;5.722;2023-03-22T14:49:14;98678.36;;;25.33;31.73
34197;BME280;36594;45.192;5.722;2023-03-22T14:52:03;98671.77;;;25.31;31.79
34197;BME280;36594;45.192;5.722;2023-03-22T14:54:55;98670.12;;;25.33;31.69
34197;BME280;36594;45.192;5.722;2023-03-22T14:57:56;98665.16;;;25.32;31.64
34197;BME280;36594;45.192;5.722;2023-03-22T15:00:46;98669.02;;;25.31;31.58
34197;BME280;36594;45.192;5.722;2023-03-22T15:03:34;98673.15;;;25.31;31.59
34197;BME280;36594;45.192;5.722;2023-03-22T15:06:25;98663.78;;;25.32;31.56
34197;BME280;36594;45.192;5.722;2023-03-22T15:09:16;98657.75;;;25.35;31.51
34197;BME280;36594;45.192;5.722;2023-03-22T15:12:06;98656.67;;;25.36;31.41
34197;BME280;36594;45.192;5.722;2023-03-22T15:14:54;98659.41;;;25.36;31.43
34197;BME280;36594;45.192;5.722;2023-03-22T15:17:44;98651.42;;;25.35;31.39
34197;BME280;36594;45.192;5.722;2023-03-22T15:20:35;98654.45;;;25.36;31.32
34197;BME280;36594;45.192;5.722;2023-03-22T15:23:38;98647.59;;;25.36;31.30
34197;BME280;36594;45.192;5.722;2023-03-22T15:26:28;98639.34;;;25.36;31.30
34197;BME280;36594;45.192;5.722;2023-03-22T15:29:21;98643.17;;;25.35;31.32
34197;BME280;36594;45.192;5.722;2023-03-22T15:32:12;98631.63;;;25.35;31.21
34197;BME280;36594;45.192;5.722;2023-03-22T15:35:03;98631.64;;;25.38;31.20
34197;BME280;36594;45.192;5.722;2023-03-22T15:37:54;98629.44;;;25.40;31.19
34197;BME280;36594;45.192;5.722;2023-03-22T15:40:45;98626.97;;;25.36;31.23
34197;BME280;36594;45.192;5.722;2023-03-22T15:43:38;98626.68;;;25.37;31.11
34197;BME280;36594;45.192;5.722;2023-03-22T15:46:28;98626.43;;;25.39;31.04
34197;BME280;36594;45.192;5.722;2023-03-22T15:52:28;98633.30;;;25.39;31.03
34197;BME280;36594;45.192;5.722;2023-03-22T15:55:18;98631.34;;;25.37;31.08
34197;BME280;36594;45.192;5.722;2023-03-22T15:58:29;98634.09;;;25.37;31.06
34197;BME280;36594;45.192;5.722;2023-03-22T16:01:19;98634.65;;;25.41;31.07
34197;BME280;36594;45.192;5.722;2023-03-22T16:04:21;98629.72;;;25.41;31.02
34197;BME280;36594;45.192;5.722;2023-03-22T16:07:09;98630.27;;;25.40;31.04